Time;durP1;ratioP1;P1;durP2;ratioP2;P2;SDS_P1;SDS_P2;PMS_P1;PMS_P2;Temp;Humidity;BMP_temperature;BMP_pressure;BME280_temperature;BME280_humidity;BME280_pressure;Samples;Min_cycle;Max_cycle;Signal;HPM_P1;HPM_P2
2023/05/02 00:01:24;;;;;;;;;;;;;;;24.43;40.26;99226.00;1839912;78;20180;-40
2023/05/02 00:04:12;;;;;;;;;;;;;;;24.41;40.25;99229.52;1837895;78;20123;-41
2023/05/02 00:07:00;;;;;;;;;;;;;;;24.43;40.23;99228.75;1840001;78;20191;-40
2023/05/02 00:09:47;;;;;;;;;;;;;;;24.44;40.25;99222.16;1839967;78;20120;-40
2023/05/02 00:12:35;;;;;;;;;;;;;;;24.45;40.21;99223.00;1845453;77;20152;-39
2023/05/02 00:15:22;;;;;;;;;;;;;;;24.44;40.27;99219.41;1819488;78;20171;-40
2023/05/02 00:18:10;;;;;;;;;;;;;;;24.43;40.26;99223.26;1840003;77;20203;-40
2023/05/02 00:20:58;;;;;;;;;;;;;;;24.42;40.29;99222.12;1840668;77;20188;-40
2023/05/02 00:23:45;;;;;;;;;;;;;;;24.42;40.33;99218.00;1842385;76;20156;-41
2023/05/02 00:26:32;;;;;;;;;;;;;;;24.42;40.25;99206.48;1841791;77;20127;-41
2023/05/02 00:29:20;;;;;;;;;;;;;;;24.42;40.17;99204.27;1871004;77;20167;-40
2023/05/02 00:32:07;;;;;;;;;;;;;;;24.43;40.33;99208.16;1839775;78;20128;-40
2023/05/02 00:34:55;;;;;;;;;;;;;;;24.42;40.24;99210.60;1846635;77;20192;-41
2023/05/02 00:37:42;;;;;;;;;;;;;;;24.42;40.29;99207.86;1814945;78;20198;-41
2023/05/02 00:40:29;;;;;;;;;;;;;;;24.42;40.26;99203.73;1841004;78;20194;-41
2023/05/02 00:43:17;;;;;;;;;;;;;;;24.43;40.31;99203.20;1833492;77;20153;-40
2023/05/02 00:46:06;;;;;;;;;;;;;;;24.41;40.31;99208.92;1829984;77;20127;-40
2023/05/02 00:48:54;;;;;;;;;;;;;;;24.41;40.33;99199.31;1815699;78;20233;-41
2023/05/02 00:51:42;;;;;;;;;;;;;;;24.43;40.23;99207.32;1821621;78;20238;-42
2023/05/02 00:54:31;;;;;;;;;;;;;;;24.41;40.20;99195.20;1860932;77;20180;-40
2023/05/02 00:57:18;;;;;;;;;;;;;;;24.41;40.22;99196.58;1861078;77;20243;-40
2023/05/02 01:00:06;;;;;;;;;;;;;;;24.42;40.17;99196.03;1842549;78;20166;-40
2023/05/02 01:02:55;;;;;;;;;;;;;;;24.42;40.27;99196.03;1840855;78;20125;-40
2023/05/02 01:05:47;;;;;;;;;;;;;;;24.41;40.27;99195.20;1848079;77;20173;-40
2023/05/02 01:08:35;;;;;;;;;;;;;;;24.43;40.32;99197.17;1871021;77;20199;-40
2023/05/02 01:11:30;;;;;;;;;;;;;;;24.42;40.32;99194.66;1854701;77;20249;-41
2023/05/02 01:14:20;;;;;;;;;;;;;;;24.38;40.35;99188.86;1852305;77;20215;-39
2023/05/02 01:17:09;;;;;;;;;;;;;;;24.39;40.42;99193.78;1851806;77;20217;-40
2023/05/02 01:19:58;;;;;;;;;;;;;;;24.40;40.38;99189.44;1851741;77;20161;-40
2023/05/02 01:22:46;;;;;;;;;;;;;;;24.40;40.40;99186.69;1870942;77;20128;-40
2023/05/02 01:25:38;;;;;;;;;;;;;;;24.41;40.35;99188.34;1861728;77;20172;-41
2023/05/02 01:28:33;;;;;;;;;;;;;;;24.42;40.33;99196.88;1796673;78;20253;-41
2023/05/02 01:31:21;;;;;;;;;;;;;;;24.43;40.33;99193.06;1834027;78;20170;-39
2023/05/02 01:34:09;;;;;;;;;;;;;;;24.40;40.34;99194.09;1828009;78;20210;-40
2023/05/02 01:36:59;;;;;;;;;;;;;;;24.41;40.42;99197.94;1858659;77;20241;-40
2023/05/02 01:39:49;;;;;;;;;;;;;;;24.41;40.34;99195.20;1813931;78;20120;-40
2023/05/02 01:42:36;;;;;;;;;;;;;;;24.41;40.39;99193.83;1837074;76;20172;-40
2023/05/02 01:45:26;;;;;;;;;;;;;;;24.38;40.38;99195.73;1859672;76;20234;-40
2023/05/02 01:48:14;;;;;;;;;;;;;;;24.40;40.37;99199.05;1810321;79;20131;-40
2023/05/02 01:51:03;;;;;;;;;;;;;;;24.42;40.37;99190.01;1857573;77;20157;-41
2023/05/02 01:53:52;;;;;;;;;;;;;;;24.42;40.22;99188.64;1851870;77;20149;-40
2023/05/02 01:56:40;;;;;;;;;;;;;;;24.42;40.19;99191.38;1839891;78;20186;-40
2023/05/02 01:59:28;;;;;;;;;;;;;;;24.41;40.19;99193.83;1842321;77;20230;-40
2023/05/02 02:02:16;;;;;;;;;;;;;;;24.40;40.22;99186.69;1865018;77;20168;-39
2023/05/02 02:05:05;;;;;;;;;;;;;;;24.42;40.23;99202.37;1839865;78;20190;-40
2023/05/02 02:07:53;;;;;;;;;;;;;;;24.41;40.22;99200.69;1822621;78;20127;-40
2023/05/02 02:10:42;;;;;;;;;;;;;;;24.43;40.20;99200.45;1827257;77;20184;-40
2023/05/02 02:13:34;;;;;;;;;;;;;;;24.42;40.22;99202.37;1850178;77;20199;-41
2023/05/02 02:16:23;;;;;;;;;;;;;;;24.43;40.19;99199.92;1834235;77;20196;-40
2023/05/02 02:19:12;;;;;;;;;;;;;;;24.43;40.26;99201.83;1819829;79;20218;-40
2023/05/02 02:22:00;;;;;;;;;;;;;;;24.35;40.26;99184.41;1826180;78;20229;-40
2023/05/02 02:24:48;;;;;;;;;;;;;;;24.43;40.24;99199.09;1839903;78;20171;-40
2023/05/02 02:27:36;;;;;;;;;;;;;;;24.33;40.24;99189.33;1836292;78;20234;-40
2023/05/02 02:30:24;;;;;;;;;;;;;;;24.42;40.24;99196.03;1830003;78;20182;-40
2023/05/02 02:33:11;;;;;;;;;;;;;;;24.40;40.21;99196.30;1846633;78;20279;-41
2023/05/02 02:36:09;;;;;;;;;;;;;;;24.42;40.20;99200.16;1836560;78;20197;-40
2023/05/02 02:39:04;;;;;;;;;;;;;;;24.40;40.20;99194.92;1819624;79;20181;-40
2023/05/02 02:42:03;;;;;;;;;;;;;;;24.41;40.22;99195.20;1838228;78;20170;-40
2023/05/02 02:44:58;;;;;;;;;;;;;;;24.40;40.22;99187.23;1746453;77;20297;-40
2023/05/02 02:47:53;;;;;;;;;;;;;;;24.37;40.27;99195.42;1824774;78;20165;-41
2023/05/02 02:51:00;;;;;;;;;;;;;;;24.37;40.30;99193.22;1832228;78;20190;-41
2023/05/02 02:53:52;;;;;;;;;;;;;;;24.34;40.18;99195.92;1850250;78;20572;-40
2023/05/02 02:56:41;;;;;;;;;;;;;;;24.32;40.09;99193.17;1835473;78;20135;-40
2023/05/02 02:59:30;;;;;;;;;;;;;;;24.35;40.03;99190.73;1845720;78;20127;-41
2023/05/02 03:02:19;;;;;;;;;;;;;;;24.38;40.06;99192.98;1841257;78;20265;-41
2023/05/02 03:05:08;;;;;;;;;;;;;;;24.38;40.15;99193.52;1828242;78;20193;-40
2023/05/02 03:07:55;;;;;;;;;;;;;;;24.40;40.13;99193.56;1804878;79;20318;-41
2023/05/02 03:10:43;;;;;;;;;;;;;;;24.40;40.09;99191.34;1821958;79;20262;-40
2023/05/02 03:13:31;;;;;;;;;;;;;;;24.40;40.08;99196.30;1821770;79;20209;-40
2023/05/02 03:16:30;;;;;;;;;;;;;;;24.41;40.10;99195.20;1821156;79;20253;-40
2023/05/02 03:19:17;;;;;;;;;;;;;;;24.40;40.20;99192.19;1820960;79;20200;-40
2023/05/02 03:22:05;;;;;;;;;;;;;;;24.40;40.13;99192.72;1823602;79;20198;-41
2023/05/02 03:24:53;;;;;;;;;;;;;;;24.40;40.10;99202.33;1833877;77;20164;-42
2023/05/02 03:27:40;;;;;;;;;;;;;;;24.40;39.93;99201.80;1854162;77;20206;-39
2023/05/02 03:30:28;;;;;;;;;;;;;;;24.40;39.88;99203.16;1805783;79;20221;-41
2023/05/02 03:33:16;;;;;;;;;;;;;;;24.40;39.82;99192.19;1846508;77;20253;-40
2023/05/02 03:36:06;;;;;;;;;;;;;;;24.41;39.92;99199.88;1812668;79;20200;-40
2023/05/02 03:38:53;;;;;;;;;;;;;;;24.41;39.93;99197.94;1820677;79;20193;-41
2023/05/02 03:41:42;;;;;;;;;;;;;;;24.41;39.90;99193.83;1833956;77;20184;-40
2023/05/02 03:44:32;;;;;;;;;;;;;;;24.41;39.86;99202.06;1829637;77;20236;-40
2023/05/02 03:47:19;;;;;;;;;;;;;;;24.39;39.85;99204.23;1829796;77;20199;-40
2023/05/02 03:50:07;;;;;;;;;;;;;;;24.39;39.87;99206.98;1829638;78;20199;-40
2023/05/02 03:52:56;;;;;;;;;;;;;;;24.38;39.91;99205.34;1825124;78;20148;-40
2023/05/02 03:55:45;;;;;;;;;;;;;;;24.40;39.87;99216.89;1845243;78;20171;-40
2023/05/02 03:58:35;;;;;;;;;;;;;;;24.40;39.82;99202.33;1831644;78;20143;-42
2023/05/02 04:01:22;;;;;;;;;;;;;;;24.40;39.75;99207.81;1882211;76;20198;-40
2023/05/02 04:04:11;;;;;;;;;;;;;;;24.40;39.82;99213.31;1894196;76;20155;-40
2023/05/02 04:07:00;;;;;;;;;;;;;;;24.38;39.80;99211.36;1894595;76;20183;-40
2023/05/02 04:09:48;;;;;;;;;;;;;;;24.36;39.88;99214.91;1894830;76;20198;-40
2023/05/02 04:12:36;;;;;;;;;;;;;;;24.37;39.73;99214.64;1873647;76;20217;-40
2023/05/02 04:15:24;;;;;;;;;;;;;;;24.38;39.74;99221.81;1895733;76;20265;-40
2023/05/02 04:18:13;;;;;;;;;;;;;;;24.38;39.73;99221.81;1895639;76;20208;-41
2023/05/02 04:21:02;;;;;;;;;;;;;;;24.39;39.65;99226.20;1895332;76;20159;-40
2023/05/02 04:23:50;;;;;;;;;;;;;;;24.38;39.72;99228.67;1872086;76;20309;-41
2023/05/02 04:26:37;;;;;;;;;;;;;;;24.38;39.59;99233.33;1895594;76;20210;-41
2023/05/02 04:29:26;;;;;;;;;;;;;;;24.38;39.70;99237.45;1895651;76;20167;-40
2023/05/02 04:32:14;;;;;;;;;;;;;;;24.37;39.70;99233.02;1875107;76;20207;-39
2023/05/02 04:35:02;;;;;;;;;;;;;;;24.37;39.75;99235.77;1890383;76;20208;-40
2023/05/02 04:37:50;;;;;;;;;;;;;;;24.39;39.67;99234.97;1883133;76;20168;-40
2023/05/02 04:40:38;;;;;;;;;;;;;;;24.36;39.72;99262.42;1893477;76;20191;-40
2023/05/02 04:43:27;;;;;;;;;;;;;;;24.30;39.62;99255.17;1874525;76;20191;-40
2023/05/02 04:46:17;;;;;;;;;;;;;;;24.32;39.25;99257.11;1895755;76;20214;-40
2023/05/02 04:49:05;;;;;;;;;;;;;;;24.32;38.96;99266.72;1893783;76;20155;-40
2023/05/02 04:51:52;;;;;;;;;;;;;;;24.31;38.71;99269.73;1895109;76;20202;-40
2023/05/02 04:54:42;;;;;;;;;;;;;;;24.23;38.01;99268.23;1872686;76;20182;-40
2023/05/02 04:57:29;;;;;;;;;;;;;;;24.19;37.05;99278.06;1895731;76;20176;-40
2023/05/02 05:00:18;;;;;;;;;;;;;;;24.23;36.54;99274.26;1895861;76;20147;-40
2023/05/02 05:03:06;;;;;;;;;;;;;;;24.25;36.85;99286.65;1886755;76;20167;-40
2023/05/02 05:05:54;;;;;;;;;;;;;;;24.23;37.58;99292.94;1909630;75;20187;-40
2023/05/02 05:08:44;;;;;;;;;;;;;;;24.22;37.77;99292.66;1908826;74;20186;-40
2023/05/02 05:11:32;;;;;;;;;;;;;;;24.25;37.87;99294.89;1900773;75;20212;-41
2023/05/02 05:14:21;;;;;;;;;;;;;;;24.25;38.11;99305.86;1887170;76;20162;-41
2023/05/02 05:17:10;;;;;;;;;;;;;;;24.18;38.32;99298.34;1908966;75;20162;-41
2023/05/02 05:19:58;;;;;;;;;;;;;;;24.28;38.43;99314.14;1917249;75;20122;-41
2023/05/02 05:22:45;;;;;;;;;;;;;;;24.25;38.50;99319.59;1916011;75;20122;-40
2023/05/02 05:25:34;;;;;;;;;;;;;;;24.26;38.64;99319.89;1887250;76;20128;-41
2023/05/02 05:28:22;;;;;;;;;;;;;;;24.28;38.69;99327.33;1887036;76;20165;-41
2023/05/02 05:31:10;;;;;;;;;;;;;;;24.25;38.82;99319.59;1908912;75;20150;-40
2023/05/02 05:34:00;;;;;;;;;;;;;;;24.22;39.06;99320.11;1903355;75;20169;-40
2023/05/02 05:36:47;;;;;;;;;;;;;;;24.27;39.23;99332.52;1895983;75;20223;-41
2023/05/02 05:39:34;;;;;;;;;;;;;;;24.28;39.29;99336.94;1897420;75;20163;-41
2023/05/02 05:42:22;;;;;;;;;;;;;;;24.28;39.40;99330.08;1915135;75;20204;-41
2023/05/02 05:45:11;;;;;;;;;;;;;;;24.31;39.35;99319.14;1901507;75;20166;-40
2023/05/02 05:47:59;;;;;;;;;;;;;;;24.33;39.28;99333.45;1912925;75;20203;-40
2023/05/02 05:50:48;;;;;;;;;;;;;;;24.33;39.34;99327.42;1911143;75;20165;-41
2023/05/02 05:53:36;;;;;;;;;;;;;;;24.33;39.34;99330.17;1915940;75;20161;-40
2023/05/02 05:56:25;;;;;;;;;;;;;;;24.33;39.49;99327.42;1900168;75;20181;-45
2023/05/02 05:59:14;;;;;;;;;;;;;;;24.31;39.55;99326.01;1913940;75;20187;-43
2023/05/02 06:02:02;;;;;;;;;;;;;;;24.30;39.64;99322.42;1897337;75;20155;-43
2023/05/02 06:04:51;;;;;;;;;;;;;;;24.31;39.83;99317.77;1903409;75;20265;-45
2023/05/02 06:07:40;;;;;;;;;;;;;;;24.34;39.84;99319.46;1894448;75;20146;-43
2023/05/02 06:10:27;;;;;;;;;;;;;;;24.30;40.08;99321.05;1914076;75;20190;-42
2023/05/02 06:13:15;;;;;;;;;;;;;;;24.29;40.44;99318.56;1913796;75;20193;-45
2023/05/02 06:16:04;;;;;;;;;;;;;;;24.29;40.63;99317.19;1914481;75;20148;-42
2023/05/02 06:18:52;;;;;;;;;;;;;;;24.33;40.54;99327.42;1898192;75;20173;-43
2023/05/02 06:21:40;;;;;;;;;;;;;;;24.35;40.53;99336.23;1917153;75;20118;-43
2023/05/02 06:24:27;;;;;;;;;;;;;;;24.35;40.61;99322.51;1906580;75;20123;-42
2023/05/02 06:27:15;;;;;;;;;;;;;;;24.38;40.65;99331.63;1900373;75;20202;-42
2023/05/02 06:30:02;;;;;;;;;;;;;;;24.35;40.56;99336.23;1898005;75;20162;-42
2023/05/02 06:32:50;;;;;;;;;;;;;;;24.35;40.66;99337.61;1914510;75;20201;-42
2023/05/02 06:35:37;;;;;;;;;;;;;;;24.34;40.67;99334.56;1887720;76;20166;-43
2023/05/02 06:38:25;;;;;;;;;;;;;;;24.36;40.81;99343.94;1897486;75;20117;-42
2023/05/02 06:41:16;;;;;;;;;;;;;;;24.33;40.73;99356.25;1894662;75;20195;-42
2023/05/02 06:44:03;;;;;;;;;;;;;;;24.34;40.56;99351.03;1887088;76;20150;-42
2023/05/02 06:46:50;;;;;;;;;;;;;;;24.37;40.63;99355.19;1902168;75;20165;-44
2023/05/02 06:49:38;;;;;;;;;;;;;;;24.36;40.64;99348.89;1888596;75;20125;-42
2023/05/02 06:52:25;;;;;;;;;;;;;;;24.37;40.60;99342.30;1883112;75;20184;-42
2023/05/02 06:55:13;;;;;;;;;;;;;;;24.39;40.63;99353.86;1911568;75;20119;-44
2023/05/02 06:58:00;;;;;;;;;;;;;;;24.39;40.64;99350.28;1887418;76;20186;-43
2023/05/02 07:00:49;;;;;;;;;;;;;;;24.38;40.60;99348.64;1893819;75;20122;-42
2023/05/02 07:03:36;;;;;;;;;;;;;;;24.38;40.53;99345.89;1897962;75;20176;-43
2023/05/02 07:06:24;;;;;;;;;;;;;;;24.37;40.41;99331.86;1898812;75;20221;-45
2023/05/02 07:09:11;;;;;;;;;;;;;;;24.37;40.31;99343.67;1908665;75;20141;-42
2023/05/02 07:12:01;;;;;;;;;;;;;;;24.37;40.32;99340.93;1909340;75;20126;-42
2023/05/02 07:14:48;;;;;;;;;;;;;;;24.38;40.30;99348.64;1887468;76;20126;-42
2023/05/02 07:17:35;;;;;;;;;;;;;;;24.37;40.30;99339.56;1901159;75;20148;-42
2023/05/02 07:20:23;;;;;;;;;;;;;;;24.38;40.33;99341.23;1913909;75;20122;-44
2023/05/02 07:23:10;;;;;;;;;;;;;;;24.38;40.35;99348.09;1917379;75;20114;-45
2023/05/02 07:25:58;;;;;;;;;;;;;;;24.38;40.36;99343.14;1914797;75;20161;-43
2023/05/02 07:28:45;;;;;;;;;;;;;;;24.40;40.36;99347.30;1887537;76;20191;-43
2023/05/02 07:31:33;;;;;;;;;;;;;;;24.39;40.34;99351.12;1817063;78;20128;-45
2023/05/02 07:34:21;;;;;;;;;;;;;;;24.38;40.38;99345.36;1829138;78;20144;-43
2023/05/02 07:37:08;;;;;;;;;;;;;;;24.40;40.34;99354.70;1824266;78;20185;-43
2023/05/02 07:39:56;;;;;;;;;;;;;;;24.38;40.36;99341.23;1853731;76;20156;-44
2023/05/02 07:42:43;;;;;;;;;;;;;;;24.36;40.40;99346.15;1819818;78;20241;-43
2023/05/02 07:45:31;;;;;;;;;;;;;;;24.36;40.41;99340.66;1833876;77;20153;-43
2023/05/02 07:48:19;;;;;;;;;;;;;;;24.38;40.37;99338.49;1808554;78;20154;-44
2023/05/02 07:51:07;;;;;;;;;;;;;;;24.39;40.36;99340.67;1840194;78;20179;-45
2023/05/02 07:53:57;;;;;;;;;;;;;;;24.39;40.39;99336.02;1862439;77;20157;-45
2023/05/02 07:56:44;;;;;;;;;;;;;;;24.37;40.35;99334.60;1829049;78;20190;-47
2023/05/02 07:59:31;;;;;;;;;;;;;;;24.38;40.37;99333.53;1857408;76;20150;-47
2023/05/02 08:02:19;;;;;;;;;;;;;;;24.38;40.40;99328.88;1849493;77;20226;-43
2023/05/02 08:05:07;;;;;;;;;;;;;;;24.38;40.36;99317.90;1850061;77;20169;-44
2023/05/02 08:07:54;;;;;;;;;;;;;;;24.39;40.32;99325.03;1841952;77;20210;-43
2023/05/02 08:10:42;;;;;;;;;;;;;;;24.40;40.28;99319.02;1831059;77;20132;-44
2023/05/02 08:13:29;;;;;;;;;;;;;;;24.41;40.27;99320.69;1843411;77;20175;-45
2023/05/02 08:16:17;;;;;;;;;;;;;;;24.41;40.32;99317.38;1861331;77;20185;-42
2023/05/02 08:19:04;;;;;;;;;;;;;;;24.40;40.21;99322.59;1828580;78;20174;-44
2023/05/02 08:21:53;;;;;;;;;;;;;;;24.40;40.25;99327.25;1854431;77;20214;-43
2023/05/02 08:24:40;;;;;;;;;;;;;;;24.41;40.17;99312.45;1857420;77;20118;-43
2023/05/02 08:27:28;;;;;;;;;;;;;;;24.37;40.15;99327.73;1828551;78;20170;-42
2023/05/02 08:30:16;;;;;;;;;;;;;;;24.38;40.18;99331.63;1848824;77;20118;-44
2023/05/02 08:33:03;;;;;;;;;;;;;;;24.37;40.19;99332.70;1861853;77;20169;-46
2023/05/02 08:35:51;;;;;;;;;;;;;;;24.38;40.14;99315.16;1851345;77;20123;-43
2023/05/02 08:38:39;;;;;;;;;;;;;;;24.40;40.09;99325.88;1828726;78;20119;-44
2023/05/02 08:41:28;;;;;;;;;;;;;;;24.40;40.09;99314.89;1857749;77;20153;-43
2023/05/02 08:44:17;;;;;;;;;;;;;;;24.40;40.02;99328.09;1861348;77;20126;-44
2023/05/02 08:47:05;;;;;;;;;;;;;;;24.41;40.01;99320.13;1845455;78;20158;-45
2023/05/02 08:49:53;;;;;;;;;;;;;;;24.40;40.04;99310.77;1828762;78;20214;-43
2023/05/02 08:52:40;;;;;;;;;;;;;;;24.42;39.88;99330.03;1854834;77;20146;-44
2023/05/02 08:55:28;;;;;;;;;;;;;;;24.43;39.83;99328.13;1834552;78;20189;-45
2023/05/02 08:58:16;;;;;;;;;;;;;;;24.45;39.90;99328.70;1843470;77;20122;-45
2023/05/02 09:01:05;;;;;;;;;;;;;;;24.44;39.88;99327.87;1830108;77;20176;-46
2023/05/02 09:03:54;;;;;;;;;;;;;;;24.44;39.85;99325.66;1830471;78;20124;-43
2023/05/02 09:06:41;;;;;;;;;;;;;;;24.43;39.81;99335.83;1835053;77;20204;-43
2023/05/02 09:09:31;;;;;;;;;;;;;;;24.44;39.83;99330.61;1830396;78;20190;-42
2023/05/02 09:12:20;;;;;;;;;;;;;;;24.43;39.81;99330.34;1899279;75;20162;-45
2023/05/02 09:15:11;;;;;;;;;;;;;;;24.43;39.85;99342.70;1897076;75;20341;-46
2023/05/02 09:17:59;;;;;;;;;;;;;;;24.44;39.81;99325.66;1914968;75;20166;-45
2023/05/02 09:20:46;;;;;;;;;;;;;;;24.45;39.76;99329.55;1882765;76;20160;-44
2023/05/02 09:23:34;;;;;;;;;;;;;;;24.43;39.70;99314.40;1896503;75;20124;-43
2023/05/02 09:26:23;;;;;;;;;;;;;;;24.44;39.68;99321.00;1904399;75;20142;-43
2023/05/02 09:29:10;;;;;;;;;;;;;;;24.44;39.70;99297.66;1902030;75;20147;-45
2023/05/02 09:31:57;;;;;;;;;;;;;;;24.41;39.59;99317.94;1904522;75;20147;-42
2023/05/02 09:34:46;;;;;;;;;;;;;;;24.41;39.65;99299.53;1904435;75;20142;-46
2023/05/02 09:37:34;;;;;;;;;;;;;;;24.42;39.58;99330.57;1902725;75;20140;-44
2023/05/02 09:40:23;;;;;;;;;;;;;;;24.43;39.65;99317.14;1891337;75;20166;-45
2023/05/02 09:43:19;;;;;;;;;;;;;;;24.41;39.71;99313.26;1896130;75;20126;-46
2023/05/02 09:46:04;;;;;;;;;;;;;;;24.42;39.73;99321.80;1894585;75;20172;-44
2023/05/02 09:48:55;;;;;;;;;;;;;;;24.42;39.81;99316.30;1904185;75;20146;-42
2023/05/02 09:51:44;;;;;;;;;;;;;;;24.40;39.86;99322.59;1902254;75;20254;-42
2023/05/02 09:54:34;;;;;;;;;;;;;;;24.40;39.90;99314.36;1904549;75;20129;-43
2023/05/02 09:57:22;;;;;;;;;;;;;;;24.40;40.01;99319.02;1905855;75;20136;-45
2023/05/02 10:00:10;;;;;;;;;;;;;;;24.41;40.02;99313.26;1894856;75;20206;-46
2023/05/02 10:02:59;;;;;;;;;;;;;;;24.42;39.94;99327.29;1891175;75;20122;-43
2023/05/02 10:05:47;;;;;;;;;;;;;;;24.43;39.93;99319.89;1903696;74;20115;-44
2023/05/02 10:08:35;;;;;;;;;;;;;;;24.40;39.99;99312.98;1917533;75;20157;-45
2023/05/02 10:11:24;;;;;;;;;;;;;;;24.41;40.05;99310.52;1914540;75;20123;-44
2023/05/02 10:14:12;;;;;;;;;;;;;;;24.44;39.94;99322.37;1898692;75;20181;-44
2023/05/02 10:17:01;;;;;;;;;;;;;;;24.43;39.89;99313.87;1893061;75;20200;-45
2023/05/02 10:19:59;;;;;;;;;;;;;;;24.44;39.83;99307.27;1887083;76;20145;-44
2023/05/02 10:22:47;;;;;;;;;;;;;;;24.44;39.75;99305.91;1887631;76;20178;-46
2023/05/02 10:25:34;;;;;;;;;;;;;;;24.44;39.66;99300.41;1915524;75;20138;-43
2023/05/02 10:28:22;;;;;;;;;;;;;;;24.45;39.62;99303.99;1912570;75;20157;-44
2023/05/02 10:31:10;;;;;;;;;;;;;;;24.47;39.64;99303.20;1913583;75;20214;-48
2023/05/02 10:33:59;;;;;;;;;;;;;;;24.46;39.65;99285.88;1887358;76;20107;-46
2023/05/02 10:36:47;;;;;;;;;;;;;;;24.45;39.72;99302.09;1912561;75;20123;-45
2023/05/02 10:39:36;;;;;;;;;;;;;;;24.46;39.70;99300.98;1912629;75;20118;-44
2023/05/02 10:42:24;;;;;;;;;;;;;;;24.44;39.71;99303.16;1911274;75;20119;-43
2023/05/02 10:45:30;;;;;;;;;;;;;;;24.44;39.78;99310.02;1887518;76;20114;-43
2023/05/02 10:48:25;;;;;;;;;;;;;;;24.44;39.82;99301.78;1887412;76;20119;-43
2023/05/02 10:51:14;;;;;;;;;;;;;;;24.43;39.83;99300.67;1893123;75;20118;-45
2023/05/02 10:54:18;;;;;;;;;;;;;;;24.44;39.94;99314.14;1915379;75;20197;-45
2023/05/02 10:57:06;;;;;;;;;;;;;;;24.44;40.00;99312.77;1917309;75;20182;-47
2023/05/02 10:59:54;;;;;;;;;;;;;;;24.44;40.00;99303.69;1904372;75;20288;-44
2023/05/02 11:02:43;;;;;;;;;;;;;;;24.44;40.08;99299.57;1883666;76;20121;-44
2023/05/02 11:05:35;;;;;;;;;;;;;;;24.46;40.07;99297.41;1880792;75;20184;-43
2023/05/02 11:08:21;;;;;;;;;;;;;;;24.43;40.13;99293.27;1899694;74;20192;-45
2023/05/02 11:11:10;;;;;;;;;;;;;;;24.46;40.14;99283.14;1887403;76;20122;-44
2023/05/02 11:13:58;;;;;;;;;;;;;;;24.47;40.19;99282.06;1898134;75;20155;-44
2023/05/02 11:16:59;;;;;;;;;;;;;;;24.43;40.22;99278.17;1889997;75;20114;-42
2023/05/02 11:19:48;;;;;;;;;;;;;;;24.45;40.33;99269.14;1898575;75;20219;-45
2023/05/02 11:22:35;;;;;;;;;;;;;;;24.45;40.28;99259.53;1903312;75;20126;-44
2023/05/02 11:25:30;;;;;;;;;;;;;;;24.46;40.29;99266.66;1920146;75;20115;-43
2023/05/02 11:28:35;;;;;;;;;;;;;;;24.44;40.25;99274.33;1914034;75;20114;-43
2023/05/02 11:31:30;;;;;;;;;;;;;;;24.43;40.36;99272.68;1912500;75;20177;-44
2023/05/02 11:34:18;;;;;;;;;;;;;;;24.42;40.47;99257.81;1917249;75;20147;-45
2023/05/02 11:37:12;;;;;;;;;;;;;;;24.41;40.38;99272.08;1916264;75;20154;-46
2023/05/02 11:40:14;;;;;;;;;;;;;;;24.43;40.48;99267.73;1915376;75;20118;-44
2023/05/02 11:43:03;;;;;;;;;;;;;;;24.43;40.33;99261.70;1915566;75;20189;-43
2023/05/02 11:45:50;;;;;;;;;;;;;;;24.42;40.39;99260.56;1914706;75;20165;-45
2023/05/02 11:48:38;;;;;;;;;;;;;;;24.43;40.50;99253.46;1904271;75;20114;-44
2023/05/02 11:51:26;;;;;;;;;;;;;;;24.46;40.28;99257.05;1887672;76;20151;-43
2023/05/02 11:54:18;;;;;;;;;;;;;;;24.46;40.33;99251.56;1890913;75;20281;-47
2023/05/02 11:57:05;;;;;;;;;;;;;;;24.45;40.38;99254.57;1915402;75;20149;-44
2023/05/02 11:59:53;;;;;;;;;;;;;;;24.45;40.13;99251.83;1914633;75;20196;-45
2023/05/02 12:02:43;;;;;;;;;;;;;;;24.45;40.17;99247.17;1913038;75;20166;-44
2023/05/02 12:05:30;;;;;;;;;;;;;;;24.48;40.13;99243.09;1913665;75;20178;-44
2023/05/02 12:08:19;;;;;;;;;;;;;;;24.48;40.06;99243.90;1919836;74;20122;-45
2023/05/02 12:11:06;;;;;;;;;;;;;;;24.48;40.05;99241.15;1903321;75;20118;-44
2023/05/02 12:13:54;;;;;;;;;;;;;;;24.48;39.96;99245.84;1907701;75;20118;-43
2023/05/02 12:16:42;;;;;;;;;;;;;;;24.49;39.81;99240.62;1925743;74;20173;-44
2023/05/02 12:19:29;;;;;;;;;;;;;;;24.52;39.72;99246.98;1929576;74;20152;-45
2023/05/02 12:22:17;;;;;;;;;;;;;;;24.52;39.83;99241.49;1915760;74;20114;-44
2023/05/02 12:25:05;;;;;;;;;;;;;;;24.54;39.68;99245.65;1923849;74;20119;-44
2023/05/02 12:28:01;;;;;;;;;;;;;;;24.53;39.76;99236.27;1925955;74;20145;-43
2023/05/02 12:30:49;;;;;;;;;;;;;;;24.53;39.63;99237.11;1924995;74;20189;-43
2023/05/02 12:33:43;;;;;;;;;;;;;;;24.53;39.68;99241.23;1919471;74;20120;-45
2023/05/02 12:36:32;;;;;;;;;;;;;;;24.52;39.70;99223.11;1902287;75;20160;-45
2023/05/02 12:39:21;;;;;;;;;;;;;;;24.55;39.63;99232.76;1916139;74;20157;-44
2023/05/02 12:42:10;;;;;;;;;;;;;;;24.55;39.66;99232.19;1924579;74;20233;-44
2023/05/02 12:44:58;;;;;;;;;;;;;;;24.55;39.72;99232.19;1914517;74;20117;-46
2023/05/02 12:47:45;;;;;;;;;;;;;;;24.53;39.67;99231.62;1909301;74;20248;-43
2023/05/02 12:50:39;;;;;;;;;;;;;;;24.52;39.64;99223.11;1923238;74;20149;-43
2023/05/02 12:53:43;;;;;;;;;;;;;;;24.52;39.58;99230.51;1903497;75;20204;-45
2023/05/02 12:56:32;;;;;;;;;;;;;;;24.53;39.57;99228.03;1916198;74;20122;-42
2023/05/02 12:59:27;;;;;;;;;;;;;;;24.51;39.63;99224.18;1930497;74;20174;-45
2023/05/02 13:02:14;;;;;;;;;;;;;;;24.53;39.58;99236.27;1907118;74;20196;-45
2023/05/02 13:05:01;;;;;;;;;;;;;;;24.53;39.44;99219.80;1927563;74;20174;-46
2023/05/02 13:07:49;;;;;;;;;;;;;;;24.53;39.45;99227.50;1903484;75;20167;-44
2023/05/02 13:10:36;;;;;;;;;;;;;;;24.55;39.50;99234.13;1907586;75;20142;-43
2023/05/02 13:13:23;;;;;;;;;;;;;;;24.57;39.40;99223.19;1931852;74;20148;-47
2023/05/02 13:16:10;;;;;;;;;;;;;;;24.56;39.34;99231.66;1925022;74;20151;-45
2023/05/02 13:18:59;;;;;;;;;;;;;;;24.58;39.27;99223.98;1920156;74;20118;-44
2023/05/02 13:21:47;;;;;;;;;;;;;;;24.59;39.18;99227.03;1928603;74;20126;-44
2023/05/02 13:24:34;;;;;;;;;;;;;;;24.55;39.22;99219.83;1931511;74;20192;-43
2023/05/02 13:27:25;;;;;;;;;;;;;;;24.57;39.18;99211.36;1903581;75;20132;-44
2023/05/02 13:30:13;;;;;;;;;;;;;;;24.57;39.25;99214.95;1913319;74;20157;-42
2023/05/02 13:33:00;;;;;;;;;;;;;;;24.59;39.16;99211.40;1925778;74;20193;-43
2023/05/02 13:35:48;;;;;;;;;;;;;;;24.60;38.96;99213.04;1923874;74;20149;-46
2023/05/02 13:38:35;;;;;;;;;;;;;;;24.58;39.08;99206.14;1903192;75;20189;-43
2023/05/02 13:41:26;;;;;;;;;;;;;;;24.57;39.06;99207.23;1907601;75;20201;-47
2023/05/02 13:44:13;;;;;;;;;;;;;;;24.58;39.13;99198.73;1925995;74;20114;-45
2023/05/02 13:47:00;;;;;;;;;;;;;;;24.57;39.04;99205.33;1924926;74;20161;-45
2023/05/02 13:49:48;;;;;;;;;;;;;;;24.59;39.08;99210.56;1903530;75;20155;-45
2023/05/02 13:52:35;;;;;;;;;;;;;;;24.60;39.19;99202.59;1925927;74;20244;-46
2023/05/02 13:55:23;;;;;;;;;;;;;;;24.59;39.12;99196.29;1924181;74;20187;-43
2023/05/02 13:58:10;;;;;;;;;;;;;;;24.59;38.94;99195.45;1903359;75;20159;-43
2023/05/02 14:00:57;;;;;;;;;;;;;;;24.60;39.02;99202.05;1908076;75;20213;-43
2023/05/02 14:03:45;;;;;;;;;;;;;;;24.62;39.07;99186.15;1925793;74;20165;-43
2023/05/02 14:06:32;;;;;;;;;;;;;;;24.61;39.04;99198.23;1921924;75;20196;-46
2023/05/02 14:09:20;;;;;;;;;;;;;;;24.61;38.94;99192.74;1912452;74;20126;-42
2023/05/02 14:12:07;;;;;;;;;;;;;;;24.62;38.85;99197.70;1898196;75;20166;-44
2023/05/02 14:14:54;;;;;;;;;;;;;;;24.62;38.89;99193.02;1899140;75;20145;-42
2023/05/02 14:17:41;;;;;;;;;;;;;;;24.63;38.87;99186.45;1885758;76;20124;-42
2023/05/02 14:20:29;;;;;;;;;;;;;;;24.64;38.78;99192.78;1908528;75;20122;-43
2023/05/02 14:23:16;;;;;;;;;;;;;;;24.65;38.69;99192.52;1914313;75;20153;-45
2023/05/02 14:26:04;;;;;;;;;;;;;;;24.64;38.67;99194.95;1901759;75;20222;-43
2023/05/02 14:28:51;;;;;;;;;;;;;;;24.66;38.83;99195.56;1887447;76;20114;-43
2023/05/02 14:31:39;;;;;;;;;;;;;;;24.68;38.77;99191.17;1908796;75;20118;-44
2023/05/02 14:34:26;;;;;;;;;;;;;;;24.64;38.65;99191.41;1916991;75;20118;-45
2023/05/02 14:37:13;;;;;;;;;;;;;;;24.64;38.70;99192.21;1904824;75;20150;-44
2023/05/02 14:40:01;;;;;;;;;;;;;;;24.64;38.77;99192.78;1887152;75;20129;-44